Arcturus, Minnesota
Current Conditions -  °F | °C
As of 5:55 PM on Monday 22 Dec 2014 (Local Time) from KGPZ Reporting Station
Overcast Overcast  
Wind Chill: 34°   Ceiling: 400
Heat Index: 34°   Visibility: 2.5mi
Dew Point: 30°   Wind: 0mph
Humidity: 87%   Direction: NA
Pressure: 29.67"   Gusts: NA
Location:  47.3121°N, 93.3823°W
Report Text: KGPZ 222355Z AUTO 00000KT 2 1/2SM OVC004 01/M01 A2967 RMK AO1 10010 20010 52017
Loading
Personal Weather Stations






























Interactive Weather Map New forecast layout! Learn more

10-Day Weather Forecast

Advertisements
Track Severe Weather on mobile